createdAt,value
2023-03-17T00:01:34.725Z,4.60
2023-03-17T00:04:08.037Z,4.62
2023-03-17T00:06:41.350Z,4.62
2023-03-17T00:09:15.908Z,4.65
2023-03-17T00:11:52.692Z,4.51
2023-03-17T00:14:26.130Z,4.47
2023-03-17T00:17:00.929Z,4.39
2023-03-17T00:19:35.814Z,4.46
2023-03-17T00:22:13.911Z,4.51
2023-03-17T00:24:47.081Z,4.31
2023-03-17T00:27:20.660Z,4.43
2023-03-17T00:29:53.661Z,4.35
2023-03-17T00:32:27.923Z,4.35
2023-03-17T00:35:00.788Z,4.35
2023-03-17T00:37:33.935Z,4.20
2023-03-17T00:40:10.421Z,4.19
2023-03-17T00:42:43.392Z,4.15
2023-03-17T00:45:16.996Z,4.22
2023-03-17T00:47:52.439Z,4.15
2023-03-17T00:50:28.106Z,4.21
2023-03-17T00:53:02.203Z,4.18
2023-03-17T00:55:35.137Z,4.17
2023-03-17T00:58:13.849Z,4.20
2023-03-17T01:00:47.527Z,4.27
2023-03-17T01:03:22.509Z,4.05
2023-03-17T01:05:57.045Z,4.12
2023-03-17T01:08:31.483Z,4.04
2023-03-17T01:11:04.567Z,4.17
2023-03-17T01:13:38.192Z,4.08
2023-03-17T01:16:12.359Z,4.24
2023-03-17T01:18:47.465Z,4.23
2023-03-17T01:21:20.552Z,4.14
2023-03-17T01:23:53.565Z,4.16
2023-03-17T01:26:26.768Z,4.17
2023-03-17T01:29:00.105Z,4.14
2023-03-17T01:31:33.311Z,4.19
2023-03-17T01:34:07.784Z,4.16
2023-03-17T01:36:41.418Z,3.97
2023-03-17T01:39:14.457Z,3.94
2023-03-17T01:41:47.553Z,4.05
2023-03-17T01:44:20.594Z,4.05
2023-03-17T01:46:53.788Z,4.10
2023-03-17T01:49:30.306Z,4.19
2023-03-17T01:52:06.105Z,4.06
2023-03-17T01:54:41.098Z,3.96
2023-03-17T01:57:17.151Z,4.06
2023-03-17T01:59:52.014Z,4.06
2023-03-17T02:02:26.867Z,4.07
2023-03-17T02:05:01.647Z,4.09
2023-03-17T02:07:34.730Z,3.99
2023-03-17T02:10:08.842Z,4.01
2023-03-17T02:12:43.890Z,3.99
2023-03-17T02:15:17.851Z,3.99
2023-03-17T02:17:50.881Z,4.15
2023-03-17T02:20:42.482Z,3.91
2023-03-17T02:23:18.129Z,4.03
2023-03-17T02:25:53.115Z,4.09
2023-03-17T02:28:27.331Z,3.99
2023-03-17T02:31:00.236Z,4.10
2023-03-17T02:33:33.563Z,3.95
2023-03-17T02:36:07.276Z,3.89
2023-03-17T02:38:42.277Z,3.98
2023-03-17T02:41:15.236Z,3.91
2023-03-17T02:43:48.080Z,3.93
2023-03-17T02:46:21.227Z,3.86
2023-03-17T02:48:55.242Z,3.82
2023-03-17T02:51:29.202Z,3.84
2023-03-17T02:54:03.713Z,3.77
2023-03-17T02:56:36.856Z,3.86
2023-03-17T02:59:10.169Z,3.96
2023-03-17T03:01:43.576Z,3.96
2023-03-17T03:04:16.519Z,3.86
2023-03-17T03:06:49.443Z,3.81
2023-03-17T03:09:24.286Z,3.86
2023-03-17T03:11:58.692Z,3.86
2023-03-17T03:14:32.519Z,3.88
2023-03-17T03:17:05.885Z,3.87
2023-03-17T03:19:40.722Z,3.81
2023-03-17T03:22:13.812Z,3.83
2023-03-17T03:24:48.600Z,3.86
2023-03-17T03:27:21.734Z,3.76
2023-03-17T03:29:54.591Z,3.70
2023-03-17T03:32:27.708Z,3.76
2023-03-17T03:35:01.502Z,3.87
2023-03-17T03:37:34.613Z,3.89
2023-03-17T03:40:10.306Z,3.84
2023-03-17T03:42:43.689Z,4.01
2023-03-17T03:45:16.681Z,3.89
2023-03-17T03:47:49.561Z,3.93
2023-03-17T03:50:24.382Z,3.78
2023-03-17T03:52:57.515Z,3.87
2023-03-17T03:55:32.135Z,3.76
2023-03-17T03:58:06.635Z,3.71
2023-03-17T04:00:39.809Z,3.89
2023-03-17T04:03:12.839Z,3.82
2023-03-17T04:05:46.087Z,3.79
2023-03-17T04:08:19.231Z,3.92
2023-03-17T04:10:54.100Z,3.85
2023-03-17T04:13:27.548Z,3.86
2023-03-17T04:16:01.401Z,3.94
2023-03-17T04:18:35.719Z,3.91
2023-03-17T04:21:09.432Z,3.94
2023-03-17T04:23:42.458Z,3.82
2023-03-17T04:26:18.791Z,3.93
2023-03-17T04:28:52.527Z,3.93
2023-03-17T04:31:25.903Z,3.88
2023-03-17T04:33:59.516Z,3.89
2023-03-17T04:36:32.923Z,3.84
2023-03-17T04:39:08.511Z,3.93
2023-03-17T04:41:42.943Z,3.94
2023-03-17T04:44:16.123Z,3.99
2023-03-17T04:46:49.209Z,3.93
2023-03-17T04:49:22.701Z,3.88
2023-03-17T04:51:55.915Z,3.85
2023-03-17T04:54:29.251Z,3.84
2023-03-17T04:57:03.634Z,3.83
2023-03-17T04:59:36.925Z,3.95
2023-03-17T05:02:10.027Z,3.96
2023-03-17T05:04:43.417Z,4.03
2023-03-17T05:07:16.494Z,4.07
2023-03-17T05:09:49.651Z,4.06
2023-03-17T05:12:26.123Z,4.02
2023-03-17T05:14:59.468Z,3.95
2023-03-17T05:17:32.908Z,3.97
2023-03-17T05:20:06.365Z,4.00
2023-03-17T05:22:39.301Z,3.99
2023-03-17T05:25:12.488Z,3.93
2023-03-17T05:27:46.911Z,3.88
2023-03-17T05:30:20.206Z,3.88
2023-03-17T05:32:53.197Z,3.93
2023-03-17T05:35:26.324Z,3.93
2023-03-17T05:37:59.378Z,4.00
2023-03-17T05:40:32.889Z,3.90
2023-03-17T05:43:07.976Z,3.89
2023-03-17T05:45:41.275Z,3.82
2023-03-17T05:48:14.479Z,4.07
2023-03-17T05:50:47.401Z,4.00
2023-03-17T05:53:20.819Z,3.94
2023-03-17T05:55:53.828Z,3.96
2023-03-17T05:58:30.830Z,4.03
2023-03-17T06:01:03.745Z,4.12
2023-03-17T06:03:38.697Z,4.06
2023-03-17T06:06:12.543Z,4.09
2023-03-17T06:08:45.902Z,4.26
2023-03-17T06:11:20.635Z,4.22
2023-03-17T06:13:57.228Z,4.42
2023-03-17T06:16:33.155Z,4.28
2023-03-17T06:19:07.405Z,4.54
2023-03-17T06:21:41.314Z,4.57
2023-03-17T06:24:14.469Z,4.79
2023-03-17T06:26:47.543Z,4.88
2023-03-17T06:29:22.722Z,4.93
2023-03-17T06:31:56.977Z,4.91
2023-03-17T06:34:32.715Z,4.95
2023-03-17T06:37:06.093Z,5.10
2023-03-17T06:39:39.343Z,5.20
2023-03-17T06:42:12.367Z,5.11
2023-03-17T06:44:47.155Z,5.19
2023-03-17T06:47:20.171Z,5.37
2023-03-17T06:49:53.550Z,5.32
2023-03-17T06:52:27.839Z,5.34
2023-03-17T06:55:01.187Z,5.34
2023-03-17T06:57:34.468Z,5.44
2023-03-17T07:00:10.018Z,5.38
2023-03-17T07:02:43.149Z,5.36
2023-03-17T07:05:16.499Z,5.41
2023-03-17T07:07:50.214Z,5.34
2023-03-17T07:10:23.470Z,5.33
2023-03-17T07:12:59.092Z,5.19
2023-03-17T07:15:35.980Z,5.34
2023-03-17T07:18:09.462Z,5.37
2023-03-17T07:20:42.648Z,5.65
2023-03-17T07:23:16.373Z,5.84
2023-03-17T07:25:49.662Z,6.04
2023-03-17T07:28:22.805Z,6.26
2023-03-17T07:30:58.006Z,6.26
2023-03-17T07:33:33.814Z,6.15
2023-03-17T07:36:09.081Z,6.56
2023-03-17T07:38:42.170Z,6.62
2023-03-17T07:41:15.191Z,6.64
2023-03-17T07:43:48.092Z,6.28
2023-03-17T07:46:22.994Z,6.32
2023-03-17T07:48:56.915Z,6.33
2023-03-17T07:51:30.387Z,6.20
2023-03-17T07:54:04.660Z,6.23
2023-03-17T07:56:38.071Z,6.41
2023-03-17T07:59:11.214Z,6.63
2023-03-17T08:01:45.634Z,6.67
2023-03-17T08:04:18.757Z,6.90
2023-03-17T08:06:52.363Z,7.07
2023-03-17T08:09:25.698Z,6.98
2023-03-17T08:12:00.350Z,6.93
2023-03-17T08:14:33.957Z,7.13
2023-03-17T08:17:08.956Z,6.80
2023-03-17T08:19:42.496Z,6.55
2023-03-17T08:22:15.503Z,6.69
2023-03-17T08:24:48.924Z,6.84
2023-03-17T08:27:22.305Z,6.80
2023-03-17T08:29:55.786Z,6.69
2023-03-17T08:32:30.169Z,6.56
2023-03-17T08:35:03.377Z,6.64
2023-03-17T08:37:37.909Z,6.88
2023-03-17T08:40:11.752Z,7.05
2023-03-17T08:42:45.095Z,7.23
2023-03-17T08:45:19.465Z,7.47
2023-03-17T08:47:54.263Z,7.42
2023-03-17T08:50:27.967Z,7.13
2023-03-17T08:53:01.594Z,7.01
2023-03-17T08:55:34.552Z,6.93
2023-03-17T08:58:07.587Z,6.91
2023-03-17T09:00:40.917Z,7.08
2023-03-17T09:03:15.637Z,7.01
2023-03-17T09:05:50.019Z,6.92
2023-03-17T09:08:23.813Z,7.11
2023-03-17T09:10:57.084Z,7.18
2023-03-17T09:13:30.413Z,7.20
2023-03-17T09:16:04.038Z,7.30
2023-03-17T09:18:38.946Z,7.22
2023-03-17T09:21:12.521Z,7.25
2023-03-17T09:23:45.468Z,7.29
2023-03-17T09:26:19.676Z,7.52
2023-03-17T09:28:52.903Z,7.67
2023-03-17T09:31:27.273Z,7.81
2023-03-17T09:34:02.064Z,7.96
2023-03-17T09:36:35.112Z,7.97
2023-03-17T09:39:08.922Z,7.96
2023-03-17T09:42:09.047Z,8.01
2023-03-17T09:44:49.067Z,8.11
2023-03-17T09:47:35.539Z,8.19
2023-03-17T09:50:14.212Z,8.06
2023-03-17T09:52:50.351Z,8.26
2023-03-17T09:55:27.741Z,8.11
2023-03-17T09:58:03.513Z,8.05
2023-03-17T10:00:36.469Z,7.98
2023-03-17T10:03:11.253Z,7.98
2023-03-17T10:05:46.940Z,7.83
2023-03-17T10:08:31.093Z,7.79
2023-03-17T10:11:09.527Z,7.97
2023-03-17T10:13:50.641Z,7.91
2023-03-17T10:16:28.581Z,8.05
2023-03-17T10:19:04.516Z,8.25
2023-03-17T10:21:43.068Z,8.28
2023-03-17T10:24:16.097Z,8.57
2023-03-17T10:26:51.167Z,8.48
2023-03-17T10:29:24.899Z,8.60
2023-03-17T10:31:58.736Z,8.48
2023-03-17T10:34:32.747Z,8.39
2023-03-17T10:37:08.764Z,8.50
2023-03-17T10:39:46.909Z,8.31
2023-03-17T10:42:24.638Z,8.26
2023-03-17T10:44:58.505Z,8.26
2023-03-17T10:47:32.748Z,8.30
2023-03-17T10:50:18.601Z,8.34
2023-03-17T10:52:55.430Z,8.14
2023-03-17T10:55:29.926Z,8.17
2023-03-17T10:58:04.476Z,8.15
2023-03-17T11:00:39.166Z,8.09
2023-03-17T11:03:13.988Z,8.19
2023-03-17T11:05:56.734Z,8.17
2023-03-17T11:08:34.154Z,8.49
2023-03-17T11:11:08.910Z,8.81
2023-03-17T11:13:42.325Z,8.58
2023-03-17T11:16:22.088Z,8.73
2023-03-17T11:18:56.620Z,8.79
2023-03-17T11:21:31.345Z,8.96
2023-03-17T11:24:09.409Z,8.80
2023-03-17T11:26:50.622Z,8.90
2023-03-17T11:29:47.501Z,8.89
2023-03-17T11:32:27.684Z,8.80
2023-03-17T11:35:06.622Z,8.69
2023-03-17T11:37:49.636Z,8.81
2023-03-17T11:40:31.962Z,8.98
2023-03-17T11:43:20.519Z,9.16
2023-03-17T11:45:56.444Z,8.99
2023-03-17T11:48:35.957Z,8.88
2023-03-17T11:51:16.580Z,8.87
2023-03-17T11:54:04.196Z,8.86
2023-03-17T11:56:43.509Z,8.80
2023-03-17T11:59:21.746Z,8.88
2023-03-17T12:01:58.257Z,8.88
2023-03-17T12:04:34.682Z,8.72
2023-03-17T12:07:14.328Z,8.62
2023-03-17T12:09:49.879Z,8.70
2023-03-17T12:12:28.602Z,8.64
2023-03-17T12:15:05.337Z,8.76
2023-03-17T12:17:40.646Z,8.67
2023-03-17T12:20:18.147Z,8.57
2023-03-17T12:22:57.107Z,8.61
2023-03-17T12:25:32.788Z,8.52
2023-03-17T12:28:12.117Z,8.48
2023-03-17T12:30:49.421Z,8.56
2023-03-17T12:33:27.599Z,8.77
2023-03-17T12:36:01.517Z,8.78
2023-03-17T12:38:37.206Z,8.85
2023-03-17T12:41:19.106Z,8.87
2023-03-17T12:44:01.291Z,8.91
2023-03-17T12:46:42.118Z,8.94
2023-03-17T12:49:25.174Z,8.99
2023-03-17T12:52:04.254Z,9.09
2023-03-17T12:54:38.707Z,9.12
2023-03-17T12:57:14.356Z,9.04
2023-03-17T12:59:49.717Z,8.87
2023-03-17T13:02:32.166Z,8.85
2023-03-17T13:05:09.267Z,8.88
2023-03-17T13:07:47.825Z,8.83
2023-03-17T13:10:36.125Z,8.86
2023-03-17T13:13:28.192Z,8.97
2023-03-17T13:16:05.714Z,9.17
2023-03-17T13:18:49.515Z,9.22
2023-03-17T13:21:26.467Z,9.15
2023-03-17T13:24:20.014Z,9.12
2023-03-17T13:26:58.483Z,8.99
2023-03-17T13:29:43.588Z,8.94
2023-03-17T13:32:34.104Z,8.91
2023-03-17T13:35:26.699Z,8.92
2023-03-17T13:38:21.070Z,8.93
2023-03-17T13:41:05.765Z,8.85
2023-03-17T13:43:46.304Z,8.84
2023-03-17T13:46:26.794Z,8.82
2023-03-17T13:49:04.237Z,8.75
2023-03-17T13:51:41.896Z,8.80
2023-03-17T13:54:22.124Z,8.81
2023-03-17T13:56:55.822Z,8.75
2023-03-17T13:59:36.569Z,8.77
2023-03-17T14:02:16.645Z,8.73
2023-03-17T14:04:53.469Z,8.71
2023-03-17T14:07:29.539Z,8.74
2023-03-17T14:10:05.516Z,8.72
2023-03-17T14:12:41.278Z,8.70
2023-03-17T14:15:21.270Z,8.69
2023-03-17T14:17:57.489Z,8.69
2023-03-17T14:20:31.851Z,8.74
2023-03-17T14:23:06.666Z,8.68
2023-03-17T14:25:41.085Z,8.67
2023-03-17T14:28:17.345Z,8.66
2023-03-17T14:30:52.313Z,8.67
2023-03-17T14:33:27.151Z,8.69
2023-03-17T14:36:01.677Z,8.68
2023-03-17T14:38:37.042Z,8.68
2023-03-17T14:41:17.612Z,8.64
2023-03-17T14:43:52.235Z,8.67
2023-03-17T14:46:26.191Z,8.69
2023-03-17T14:49:01.307Z,8.67
2023-03-17T14:51:36.026Z,8.63
2023-03-17T14:54:15.298Z,8.54
2023-03-17T14:56:48.956Z,8.49
2023-03-17T14:59:24.688Z,8.51
2023-03-17T15:01:58.430Z,8.52
2023-03-17T15:04:32.070Z,8.52
2023-03-17T15:07:07.550Z,8.51
2023-03-17T15:09:42.394Z,8.46
2023-03-17T15:12:18.130Z,8.49
2023-03-17T15:14:53.432Z,8.40
2023-03-17T15:17:28.754Z,8.36
2023-03-17T15:20:04.441Z,8.35
2023-03-17T15:22:42.483Z,8.28
2023-03-17T15:25:21.163Z,8.15
2023-03-17T15:27:54.911Z,8.19
2023-03-17T15:30:37.402Z,8.09
2023-03-17T15:33:19.150Z,8.04
2023-03-17T15:35:52.446Z,7.98
2023-03-17T15:38:26.696Z,7.94
2023-03-17T15:41:01.325Z,7.92
2023-03-17T15:43:34.787Z,7.87
2023-03-17T15:46:09.148Z,7.73
2023-03-17T15:48:42.151Z,7.60
2023-03-17T15:51:16.302Z,7.68
2023-03-17T15:53:49.496Z,7.62
2023-03-17T15:56:24.483Z,7.53
2023-03-17T15:58:57.694Z,7.46
2023-03-17T16:01:31.051Z,7.42
2023-03-17T16:04:04.804Z,7.37
2023-03-17T16:06:37.941Z,7.27
2023-03-17T16:09:15.787Z,7.28
2023-03-17T16:11:52.266Z,7.19
2023-03-17T16:14:25.625Z,7.27
2023-03-17T16:16:59.165Z,7.22
2023-03-17T16:19:32.443Z,7.17
2023-03-17T16:22:05.673Z,7.08
2023-03-17T16:24:38.842Z,7.02
2023-03-17T16:27:16.282Z,6.93
2023-03-17T16:29:49.404Z,6.92
2023-03-17T16:32:22.250Z,6.86
2023-03-17T16:34:55.507Z,6.87
2023-03-17T16:37:28.992Z,6.81
2023-03-17T16:40:02.148Z,6.72
2023-03-17T16:42:36.600Z,6.70
2023-03-17T16:45:15.130Z,6.73
2023-03-17T16:47:48.210Z,6.66
2023-03-17T16:50:22.633Z,6.64
2023-03-17T16:52:55.694Z,6.64
2023-03-17T16:55:29.981Z,6.50
2023-03-17T16:58:07.950Z,6.55
2023-03-17T17:00:41.473Z,6.37
2023-03-17T17:03:14.963Z,6.44
2023-03-17T17:05:48.143Z,6.35
2023-03-17T17:08:21.037Z,6.33
2023-03-17T17:10:54.222Z,6.30
2023-03-17T17:13:29.226Z,6.26
2023-03-17T17:16:03.238Z,6.26
2023-03-17T17:18:37.949Z,6.17
2023-03-17T17:21:11.092Z,6.19
2023-03-17T17:23:44.792Z,6.12
2023-03-17T17:26:18.068Z,6.08
2023-03-17T17:28:52.389Z,6.00
2023-03-17T17:31:25.610Z,6.08
2023-03-17T17:33:59.244Z,5.95
2023-03-17T17:36:32.507Z,5.96
2023-03-17T17:39:06.873Z,5.88
2023-03-17T17:41:39.826Z,5.98
2023-03-17T17:44:14.087Z,5.87
2023-03-17T17:46:47.050Z,5.81
2023-03-17T17:49:21.204Z,5.86
2023-03-17T17:51:54.478Z,5.91
2023-03-17T17:54:27.949Z,5.78
2023-03-17T17:57:01.694Z,5.69
2023-03-17T17:59:35.983Z,5.33
2023-03-17T18:02:08.885Z,5.68
2023-03-17T18:04:42.277Z,5.66
2023-03-17T18:07:15.500Z,5.68
2023-03-17T18:09:48.741Z,5.67
2023-03-17T18:12:22.228Z,5.74
2023-03-17T18:14:56.526Z,5.63
2023-03-17T18:17:31.986Z,5.67
2023-03-17T18:20:06.718Z,5.63
2023-03-17T18:22:41.692Z,5.68
2023-03-17T18:25:15.467Z,5.66
2023-03-17T18:27:48.520Z,5.70
2023-03-17T18:30:24.331Z,5.73
2023-03-17T18:33:00.100Z,5.77
2023-03-17T18:35:34.544Z,5.75
2023-03-17T18:38:08.347Z,5.72
2023-03-17T18:40:41.762Z,5.78
2023-03-17T18:43:14.636Z,5.85
2023-03-17T18:45:49.472Z,5.77
2023-03-17T18:48:22.803Z,5.79
2023-03-17T18:50:55.734Z,5.82
2023-03-17T18:53:30.776Z,5.75
2023-03-17T18:56:03.863Z,5.74
2023-03-17T18:58:37.368Z,5.89
2023-03-17T19:01:11.979Z,5.91
2023-03-17T19:03:45.175Z,5.88
2023-03-17T19:06:19.973Z,5.86
2023-03-17T19:08:52.919Z,5.90
2023-03-17T19:11:26.120Z,5.86
2023-03-17T19:14:01.520Z,5.92
2023-03-17T19:16:36.865Z,5.90
2023-03-17T19:19:09.915Z,5.88
2023-03-17T19:21:43.390Z,5.87
2023-03-17T19:24:16.304Z,5.73
2023-03-17T19:26:49.425Z,5.82
2023-03-17T19:29:22.342Z,5.79
2023-03-17T19:31:57.292Z,5.77
2023-03-17T19:34:31.789Z,5.71
2023-03-17T19:37:05.607Z,5.80
2023-03-17T19:39:38.738Z,5.77
2023-03-17T19:42:12.435Z,5.70
2023-03-17T19:44:45.751Z,5.81
2023-03-17T19:47:20.441Z,5.66
2023-03-17T19:49:53.884Z,5.77
2023-03-17T19:52:26.779Z,5.72
2023-03-17T19:54:59.997Z,5.59
2023-03-17T19:57:32.980Z,5.75
2023-03-17T20:00:12.069Z,5.80
2023-03-17T20:02:46.469Z,5.79
2023-03-17T20:05:19.904Z,5.68
2023-03-17T20:07:52.884Z,5.67
2023-03-17T20:10:25.832Z,5.68
2023-03-17T20:13:00.338Z,5.68
2023-03-17T20:15:33.831Z,5.64
2023-03-17T20:18:08.537Z,5.62
2023-03-17T20:20:47.370Z,5.51
2023-03-17T20:23:21.603Z,5.41
2023-03-17T20:25:54.686Z,5.45
2023-03-17T20:28:29.969Z,5.49
2023-03-17T20:31:04.693Z,5.40
2023-03-17T20:33:39.415Z,5.54
2023-03-17T20:36:14.102Z,5.45
2023-03-17T20:38:47.195Z,5.48
2023-03-17T20:41:21.048Z,5.51
2023-03-17T20:43:54.136Z,5.47
2023-03-17T20:46:27.131Z,5.44
2023-03-17T20:49:02.098Z,5.47
2023-03-17T20:51:35.567Z,5.52
2023-03-17T20:54:09.411Z,5.46
2023-03-17T20:56:42.574Z,5.50
2023-03-17T20:59:15.749Z,5.49
2023-03-17T21:01:49.203Z,5.45
2023-03-17T21:04:23.483Z,5.37
2023-03-17T21:06:56.289Z,5.37
2023-03-17T21:09:29.801Z,5.47
2023-03-17T21:12:03.828Z,5.37
2023-03-17T21:14:37.627Z,5.39
2023-03-17T21:17:11.812Z,5.38
2023-03-17T21:19:46.439Z,5.37
2023-03-17T21:22:19.314Z,5.44
2023-03-17T21:24:53.137Z,5.32
2023-03-17T21:27:26.246Z,5.34
2023-03-17T21:29:59.445Z,5.42
2023-03-17T21:32:32.928Z,5.43
2023-03-17T21:35:08.093Z,5.47
2023-03-17T21:37:41.339Z,5.44
2023-03-17T21:40:15.720Z,5.45
2023-03-17T21:42:49.698Z,5.45
2023-03-17T21:45:22.965Z,5.44
2023-03-17T21:47:56.538Z,5.45
2023-03-17T21:50:31.658Z,5.43
2023-03-17T21:53:04.780Z,5.49
2023-03-17T21:55:38.435Z,5.50
2023-03-17T21:58:11.721Z,5.49
2023-03-17T22:00:46.110Z,5.43
2023-03-17T22:03:19.523Z,5.41
2023-03-17T22:05:54.700Z,5.45
2023-03-17T22:08:27.783Z,5.51
2023-03-17T22:11:00.870Z,5.48
2023-03-17T22:13:34.459Z,5.49
2023-03-17T22:16:09.290Z,5.53
2023-03-17T22:18:42.457Z,5.47
2023-03-17T22:21:16.746Z,5.45
2023-03-17T22:23:49.673Z,5.46
2023-03-17T22:26:23.111Z,5.50
2023-03-17T22:28:56.451Z,5.45
2023-03-17T22:31:30.139Z,5.41
2023-03-17T22:34:03.470Z,5.54
2023-03-17T22:36:37.999Z,5.53
2023-03-17T22:39:11.938Z,5.46
2023-03-17T22:41:45.249Z,5.48
2023-03-17T22:44:18.742Z,5.53
2023-03-17T22:46:51.800Z,5.52
2023-03-17T22:49:24.823Z,5.53
2023-03-17T22:51:59.024Z,5.49
2023-03-17T22:54:31.909Z,5.54
2023-03-17T22:57:05.677Z,5.56
2023-03-17T22:59:39.006Z,5.54
2023-03-17T23:02:12.101Z,5.54
2023-03-17T23:04:45.502Z,5.53
2023-03-17T23:07:20.324Z,5.54
2023-03-17T23:09:53.354Z,5.56
2023-03-17T23:12:28.259Z,5.61
2023-03-17T23:15:02.239Z,5.53
2023-03-17T23:17:35.819Z,5.48
2023-03-17T23:20:09.352Z,5.61
2023-03-17T23:22:43.939Z,5.50
2023-03-17T23:25:16.998Z,5.53
2023-03-17T23:27:50.362Z,5.50
2023-03-17T23:30:24.570Z,5.41
2023-03-17T23:32:57.510Z,5.52
2023-03-17T23:35:30.470Z,5.43
2023-03-17T23:38:05.147Z,5.27
2023-03-17T23:40:38.868Z,5.41
2023-03-17T23:43:12.357Z,5.39
2023-03-17T23:45:45.513Z,5.44
2023-03-17T23:48:18.576Z,5.45
2023-03-17T23:50:52.399Z,5.46
2023-03-17T23:53:27.939Z,5.43
2023-03-17T23:56:01.331Z,5.45
2023-03-17T23:58:34.496Z,5.50
